createdAt,value
2019-01-22T00:00:58.906Z,57.95
2019-01-22T00:03:27.834Z,64.42
2019-01-22T00:05:56.758Z,64.58
2019-01-22T00:08:25.790Z,60.35
2019-01-22T00:10:54.713Z,82.08
2019-01-22T00:13:23.652Z,76.97
2019-01-22T00:15:52.577Z,73.57
2019-01-22T00:18:21.428Z,69.15
2019-01-22T00:20:50.673Z,65.08
2019-01-22T00:23:19.590Z,64.42
2019-01-22T00:25:48.443Z,69.30
2019-01-22T00:28:17.368Z,59.83
2019-01-22T00:30:46.359Z,60.58
2019-01-22T00:33:15.413Z,62.67
2019-01-22T00:35:44.257Z,62.23
2019-01-22T00:38:13.364Z,66.15
2019-01-22T00:40:42.288Z,61.90
2019-01-22T00:43:11.199Z,67.82
2019-01-22T00:45:40.191Z,63.25
2019-01-22T00:48:09.124Z,61.28
2019-01-22T00:50:38.797Z,62.05
2019-01-22T00:53:10.138Z,63.28
2019-01-22T00:55:38.373Z,56.85
2019-01-22T00:58:07.407Z,57.93
2019-01-22T01:00:36.403Z,65.40
2019-01-22T01:03:24.336Z,63.35
2019-01-22T01:05:53.394Z,66.37
2019-01-22T01:08:22.375Z,71.97
2019-01-22T01:10:51.553Z,62.17
2019-01-22T01:13:20.549Z,61.05
2019-01-22T01:15:49.400Z,63.95
2019-01-22T01:18:18.264Z,65.90
2019-01-22T01:20:47.116Z,67.17
2019-01-22T01:23:17.019Z,73.67
2019-01-22T01:25:46.136Z,67.50
2019-01-22T01:28:15.142Z,66.07
2019-01-22T01:30:44.128Z,60.08
2019-01-22T01:33:12.973Z,65.10
2019-01-22T01:35:41.892Z,71.02
2019-01-22T01:38:10.812Z,65.42
2019-01-22T01:40:39.664Z,66.25
2019-01-22T01:43:08.991Z,60.10
2019-01-22T01:45:37.901Z,58.92
2019-01-22T01:48:06.927Z,69.17
2019-01-22T01:50:35.850Z,61.75
2019-01-22T01:53:04.853Z,65.22
2019-01-22T01:55:33.772Z,64.55
2019-01-22T01:58:02.696Z,60.00
2019-01-22T02:00:31.626Z,60.92
2019-01-22T02:03:00.481Z,66.85
2019-01-22T02:05:29.506Z,66.62
2019-01-22T02:07:58.416Z,67.30
2019-01-22T02:10:27.700Z,63.90
2019-01-22T02:13:11.769Z,62.53
2019-01-22T02:19:33.537Z,63.23
2019-01-22T02:22:25.612Z,62.73
2019-01-22T02:25:26.096Z,60.15
2019-01-22T02:28:35.114Z,68.33
2019-01-22T02:31:47.763Z,62.30
2019-01-22T02:34:31.992Z,66.10
2019-01-22T02:37:39.929Z,61.68
2019-01-22T02:40:32.988Z,70.03
2019-01-22T02:43:58.448Z,55.90
2019-01-22T02:46:45.505Z,57.15
2019-01-22T02:49:47.282Z,59.25
2019-01-22T02:52:56.932Z,65.15
2019-01-22T02:55:36.765Z,62.53
2019-01-22T02:58:30.153Z,67.22
2019-01-22T03:01:29.832Z,66.40
2019-01-22T03:04:37.406Z,70.00
2019-01-22T03:07:37.556Z,69.30
2019-01-22T03:10:47.128Z,71.75
2019-01-22T03:14:06.356Z,67.55
2019-01-22T03:17:04.244Z,71.53
2019-01-22T03:19:49.962Z,71.90
2019-01-22T03:23:07.920Z,72.42
2019-01-22T03:25:46.208Z,65.75
2019-01-22T03:28:47.619Z,63.65
2019-01-22T03:31:45.917Z,64.97
2019-01-22T03:34:25.475Z,73.42
2019-01-22T03:37:30.443Z,71.07
2019-01-22T03:40:27.465Z,70.90
2019-01-22T03:43:32.197Z,77.37
2019-01-22T03:46:51.681Z,68.02
2019-01-22T03:49:32.873Z,74.53
2019-01-22T03:52:29.840Z,76.95
2019-01-22T03:55:53.089Z,67.40
2019-01-22T03:58:22.334Z,80.42
2019-01-22T04:00:58.034Z,73.72
2019-01-22T04:03:26.976Z,75.62
2019-01-22T04:05:58.582Z,75.55
2019-01-22T04:08:28.672Z,75.10
2019-01-22T04:11:37.329Z,75.40
2019-01-22T04:14:06.311Z,75.12
2019-01-22T04:16:35.315Z,74.03
2019-01-22T04:19:04.481Z,73.33
2019-01-22T04:21:40.239Z,74.55
2019-01-22T04:24:53.157Z,75.57
2019-01-22T04:27:52.178Z,81.55
2019-01-22T04:30:39.984Z,75.40
2019-01-22T04:33:55.948Z,76.85
2019-01-22T04:37:11.767Z,77.30
2019-01-22T04:40:26.762Z,68.05
2019-01-22T04:43:40.015Z,71.40
2019-01-22T04:46:46.293Z,80.17
2019-01-22T04:49:49.845Z,73.97
2019-01-22T04:53:08.867Z,79.77
2019-01-22T04:56:24.653Z,82.90
2019-01-22T04:59:04.601Z,76.62
2019-01-22T05:02:07.884Z,75.90
2019-01-22T05:04:44.877Z,75.55
2019-01-22T05:07:53.819Z,73.10
2019-01-22T05:11:02.855Z,68.60
2019-01-22T05:13:47.596Z,65.78
2019-01-22T05:16:36.638Z,65.35
2019-01-22T05:19:27.276Z,71.60
2019-01-22T05:22:22.100Z,72.72
2019-01-22T05:25:16.949Z,68.52
2019-01-22T05:28:29.581Z,69.67
2019-01-22T05:31:23.775Z,71.17
2019-01-22T05:34:35.074Z,77.00
2019-01-22T05:37:47.411Z,71.60
2019-01-22T05:40:55.676Z,67.85
2019-01-22T05:44:21.378Z,74.40
2019-01-22T05:47:47.155Z,63.48
2019-01-22T05:50:43.065Z,69.35
2019-01-22T05:54:14.265Z,67.47
2019-01-22T05:57:13.818Z,78.47
2019-01-22T06:00:05.235Z,74.62
2019-01-22T06:02:45.504Z,75.28
2019-01-22T06:05:46.312Z,70.28
2019-01-22T06:09:14.326Z,69.75
2019-01-22T06:12:32.169Z,79.62
2019-01-22T06:15:42.897Z,66.30
2019-01-22T06:18:39.176Z,74.10
2019-01-22T06:21:47.366Z,71.92
2019-01-22T06:24:37.663Z,71.53
2019-01-22T06:27:24.449Z,65.35
2019-01-22T06:30:31.158Z,57.08
2019-01-22T06:33:32.289Z,57.50
2019-01-22T06:36:33.001Z,55.23
2019-01-22T06:39:12.546Z,55.73
2019-01-22T06:42:25.362Z,55.80
2019-01-22T06:45:30.656Z,65.45
2019-01-22T06:48:39.584Z,62.70
2019-01-22T06:51:43.652Z,63.95
2019-01-22T06:54:59.329Z,76.22
2019-01-22T06:57:58.490Z,60.33
2019-01-22T07:01:03.841Z,66.75
2019-01-22T07:03:59.549Z,64.32
2019-01-22T07:07:18.921Z,60.75
2019-01-22T07:10:00.062Z,64.80
2019-01-22T07:12:30.852Z,66.72
2019-01-22T07:15:42.603Z,70.85
2019-01-22T07:19:02.036Z,64.92
2019-01-22T07:21:49.225Z,64.75
2019-01-22T07:24:56.027Z,69.58
2019-01-22T07:28:18.348Z,65.17
2019-01-22T07:31:49.789Z,71.85
2019-01-22T07:35:02.349Z,76.22
2019-01-22T07:38:17.468Z,73.70
2019-01-22T07:41:32.801Z,70.52
2019-01-22T07:44:46.457Z,65.08
2019-01-22T07:47:44.364Z,69.62
2019-01-22T07:50:37.188Z,62.93
2019-01-22T07:53:23.160Z,65.75
2019-01-22T07:56:54.317Z,66.28
2019-01-22T07:59:38.940Z,71.87
2019-01-22T08:03:03.538Z,65.15
2019-01-22T08:06:21.732Z,73.80
2019-01-22T08:09:15.196Z,65.08
2019-01-22T08:12:17.460Z,73.52
2019-01-22T08:15:20.724Z,65.85
2019-01-22T08:18:30.165Z,59.05
2019-01-22T08:21:52.353Z,58.15
2019-01-22T08:25:01.244Z,49.53
2019-01-22T08:28:11.792Z,49.60
2019-01-22T08:31:03.013Z,52.70
2019-01-22T08:34:08.264Z,51.35
2019-01-22T08:37:22.828Z,56.53
2019-01-22T08:40:16.546Z,52.03
2019-01-22T08:43:21.660Z,51.00
2019-01-22T08:46:22.249Z,54.63
2019-01-22T08:49:07.283Z,52.43
2019-01-22T08:52:09.245Z,49.13
2019-01-22T08:55:10.409Z,49.58
2019-01-22T08:58:03.289Z,51.75
2019-01-22T09:00:45.636Z,52.08
2019-01-22T09:03:38.508Z,52.00
2019-01-22T09:06:23.932Z,49.15
2019-01-22T09:09:13.976Z,47.83
2019-01-22T09:12:42.274Z,51.23
2019-01-22T09:15:43.189Z,53.78
2019-01-22T09:18:20.777Z,48.70
2019-01-22T09:21:28.082Z,54.73
2019-01-22T09:24:53.544Z,51.20
2019-01-22T09:27:53.749Z,49.43
2019-01-22T09:30:54.298Z,52.63
2019-01-22T09:34:04.090Z,50.15
2019-01-22T09:37:08.501Z,49.88
2019-01-22T09:39:37.531Z,46.75
2019-01-22T09:42:06.547Z,50.90
2019-01-22T09:44:35.588Z,53.63
2019-01-22T09:47:04.588Z,49.80
2019-01-22T09:49:33.572Z,53.93
2019-01-22T09:52:02.641Z,50.98
2019-01-22T09:54:31.632Z,48.78
2019-01-22T09:57:00.486Z,50.95
2019-01-22T09:59:29.445Z,47.85
2019-01-22T10:01:58.361Z,50.52
2019-01-22T10:04:27.332Z,49.65
2019-01-22T10:06:56.300Z,47.83
2019-01-22T10:09:25.234Z,51.45
2019-01-22T10:11:54.232Z,53.40
2019-01-22T10:14:23.206Z,47.65
2019-01-22T10:16:52.164Z,44.85
2019-01-22T10:19:21.181Z,52.10
2019-01-22T10:21:50.167Z,44.10
2019-01-22T10:24:19.028Z,43.40
2019-01-22T10:26:47.981Z,45.80
2019-01-22T10:29:19.128Z,45.57
2019-01-22T10:31:50.459Z,45.43
2019-01-22T10:34:18.748Z,44.83
2019-01-22T10:36:47.745Z,44.33
2019-01-22T10:39:17.929Z,42.43
2019-01-22T10:41:47.067Z,47.87
2019-01-22T10:44:16.134Z,40.13
2019-01-22T10:46:45.057Z,43.70
2019-01-22T10:49:14.044Z,43.97
2019-01-22T10:51:42.907Z,42.07
2019-01-22T10:54:34.305Z,42.00
2019-01-22T10:57:03.321Z,45.85
2019-01-22T10:59:32.164Z,38.87
2019-01-22T11:02:01.150Z,40.97
2019-01-22T11:04:29.996Z,38.57
2019-01-22T11:06:59.008Z,36.57
2019-01-22T11:09:27.880Z,40.37
2019-01-22T11:11:57.877Z,38.95
2019-01-22T11:14:26.864Z,41.02
2019-01-22T11:16:55.791Z,40.97
2019-01-22T11:19:27.900Z,40.27
2019-01-22T11:21:55.331Z,39.83
2019-01-22T11:24:30.194Z,36.97
2019-01-22T11:26:55.346Z,38.77
2019-01-22T11:29:25.001Z,36.30
2019-01-22T11:31:53.913Z,38.10
2019-01-22T11:34:23.919Z,39.30
2019-01-22T11:36:52.940Z,37.97
2019-01-22T11:39:21.876Z,36.90
2019-01-22T11:41:54.201Z,38.87
2019-01-22T11:44:23.068Z,37.00
2019-01-22T11:46:54.617Z,36.13
2019-01-22T11:49:23.575Z,34.23
2019-01-22T11:51:52.512Z,37.77
2019-01-22T11:54:21.504Z,38.13
2019-01-22T11:56:50.428Z,35.73
2019-01-22T11:59:19.278Z,38.40
2019-01-22T12:01:48.189Z,36.40
2019-01-22T12:04:17.104Z,34.53
2019-01-22T12:06:46.085Z,33.33
2019-01-22T12:09:15.046Z,34.27
2019-01-22T12:11:43.947Z,39.90
2019-01-22T12:14:12.865Z,38.27
2019-01-22T12:16:41.779Z,37.87
2019-01-22T12:19:10.653Z,39.05
2019-01-22T12:21:39.640Z,40.65
2019-01-22T12:24:09.208Z,37.00
2019-01-22T12:26:38.181Z,37.53
2019-01-22T12:29:07.917Z,34.10
2019-01-22T12:31:36.829Z,40.33
2019-01-22T12:34:05.836Z,36.10
2019-01-22T12:36:34.681Z,38.57
2019-01-22T12:39:05.385Z,38.43
2019-01-22T12:41:34.293Z,41.43
2019-01-22T12:44:03.309Z,38.13
2019-01-22T12:46:32.229Z,37.03
2019-01-22T12:49:01.073Z,33.70
2019-01-22T12:51:30.069Z,34.80
2019-01-22T12:53:58.989Z,33.80
2019-01-22T12:56:27.936Z,37.37
2019-01-22T12:58:56.770Z,36.90
2019-01-22T13:01:25.672Z,32.27
2019-01-22T13:03:54.520Z,36.23
2019-01-22T13:06:23.497Z,36.40
2019-01-22T13:08:52.421Z,33.83
2019-01-22T13:11:21.323Z,37.30
2019-01-22T13:13:50.245Z,33.47
2019-01-22T13:16:19.272Z,38.07
2019-01-22T13:18:48.130Z,35.03
2019-01-22T13:21:16.996Z,36.07
2019-01-22T13:23:53.252Z,35.90
2019-01-22T13:26:22.250Z,36.47
2019-01-22T13:28:51.116Z,35.87
2019-01-22T13:31:19.978Z,34.33
2019-01-22T13:33:48.896Z,36.50
2019-01-22T13:36:17.892Z,41.87
2019-01-22T13:38:46.741Z,34.17
2019-01-22T13:41:15.600Z,34.30
2019-01-22T13:43:44.432Z,37.67
2019-01-22T13:46:13.353Z,34.70
2019-01-22T13:48:42.354Z,38.13
2019-01-22T13:51:11.357Z,40.38
2019-01-22T13:53:40.220Z,39.35
2019-01-22T13:56:09.067Z,42.03
2019-01-22T13:58:37.936Z,36.93
2019-01-22T14:01:06.920Z,42.45
2019-01-22T14:03:35.873Z,39.80
2019-01-22T14:06:04.982Z,39.50
2019-01-22T14:08:33.985Z,43.60
2019-01-22T14:11:02.816Z,42.90
2019-01-22T14:13:31.672Z,40.70
2019-01-22T14:16:00.604Z,39.98
2019-01-22T14:18:29.432Z,43.78
2019-01-22T14:20:58.299Z,46.50
2019-01-22T14:23:27.124Z,43.33
2019-01-22T14:25:56.123Z,39.65
2019-01-22T14:28:24.954Z,41.65
2019-01-22T14:30:53.815Z,42.33
2019-01-22T14:33:22.732Z,45.35
2019-01-22T14:35:51.641Z,47.25
2019-01-22T14:38:20.646Z,43.68
2019-01-22T14:40:49.544Z,43.15
2019-01-22T14:43:18.561Z,44.38
2019-01-22T14:45:47.476Z,45.58
2019-01-22T14:48:16.550Z,45.90
2019-01-22T14:50:45.464Z,47.13
2019-01-22T14:53:14.414Z,46.02
2019-01-22T14:55:43.609Z,43.58
2019-01-22T14:58:12.931Z,50.33
2019-01-22T15:00:41.833Z,48.17
2019-01-22T15:03:10.893Z,43.63
2019-01-22T15:05:40.992Z,39.95
2019-01-22T15:08:09.849Z,43.95
2019-01-22T15:10:38.776Z,49.18
2019-01-22T15:13:07.925Z,42.93
2019-01-22T15:15:38.945Z,40.83
2019-01-22T15:18:07.808Z,42.65
2019-01-22T15:20:36.664Z,43.63
2019-01-22T15:23:05.691Z,40.12
2019-01-22T15:25:34.628Z,41.65
2019-01-22T15:28:03.540Z,40.65
2019-01-22T15:30:37.211Z,43.33
2019-01-22T15:33:07.500Z,43.38
2019-01-22T15:35:36.504Z,44.93
2019-01-22T15:38:05.680Z,45.75
2019-01-22T15:40:34.705Z,39.83
2019-01-22T15:43:03.637Z,45.75
2019-01-22T15:45:32.658Z,42.62
2019-01-22T15:48:01.715Z,43.68
2019-01-22T15:50:30.547Z,38.33
2019-01-22T15:52:59.464Z,38.60
2019-01-22T15:55:30.793Z,37.40
2019-01-22T15:58:01.794Z,38.63
2019-01-22T16:00:30.802Z,41.23
2019-01-22T16:02:59.713Z,40.83
2019-01-22T16:05:29.256Z,40.50
2019-01-22T16:07:58.190Z,44.35
2019-01-22T16:10:27.112Z,41.98
2019-01-22T16:12:56.139Z,43.45
2019-01-22T16:15:25.127Z,38.45
2019-01-22T16:17:54.157Z,42.88
2019-01-22T16:20:27.414Z,44.10
2019-01-22T16:22:56.445Z,42.20
2019-01-22T16:25:25.895Z,44.60
2019-01-22T16:27:54.825Z,42.53
2019-01-22T16:30:25.645Z,47.65
2019-01-22T16:32:54.581Z,44.20
2019-01-22T16:35:24.942Z,45.10
2019-01-22T16:37:54.050Z,43.50
2019-01-22T16:40:22.973Z,48.65
2019-01-22T16:42:51.928Z,46.15
2019-01-22T16:45:32.521Z,44.53
2019-01-22T16:48:01.550Z,48.30
2019-01-22T16:50:32.940Z,44.35
2019-01-22T16:53:03.600Z,47.67
2019-01-22T16:55:33.996Z,46.10
2019-01-22T16:58:16.657Z,46.28
2019-01-22T17:00:45.571Z,49.50
2019-01-22T17:03:14.561Z,47.53
2019-01-22T17:05:43.622Z,47.10
2019-01-22T17:08:12.620Z,47.17
2019-01-22T17:10:41.617Z,62.10
2019-01-22T17:13:10.608Z,51.77
2019-01-22T17:15:39.611Z,49.80
2019-01-22T17:18:09.077Z,47.35
2019-01-22T17:20:40.676Z,50.92
2019-01-22T17:23:09.637Z,43.17
2019-01-22T17:25:38.652Z,52.60
2019-01-22T17:28:07.642Z,49.90
2019-01-22T17:30:36.669Z,54.15
2019-01-22T17:33:16.721Z,47.15
2019-01-22T17:35:48.169Z,48.08
2019-01-22T17:38:18.990Z,47.40
2019-01-22T17:40:47.938Z,46.65
2019-01-22T17:43:16.855Z,53.15
2019-01-22T17:45:45.812Z,47.67
2019-01-22T17:48:14.793Z,53.05
2019-01-22T17:50:43.738Z,49.05
2019-01-22T17:53:12.643Z,48.00
2019-01-22T17:55:41.570Z,49.18
2019-01-22T17:58:10.633Z,59.88
2019-01-22T18:00:40.733Z,48.65
2019-01-22T18:03:09.753Z,49.40
2019-01-22T18:05:38.790Z,50.40
2019-01-22T18:08:09.785Z,46.55
2019-01-22T18:10:38.432Z,52.78
2019-01-22T18:13:07.522Z,51.00
2019-01-22T18:15:36.510Z,49.83
2019-01-22T18:18:05.930Z,48.08
2019-01-22T18:20:34.882Z,52.80
2019-01-22T18:23:03.909Z,49.25
2019-01-22T18:25:32.913Z,49.75
2019-01-22T18:28:01.937Z,53.68
2019-01-22T18:30:30.873Z,59.67
2019-01-22T18:32:59.861Z,56.25
2019-01-22T18:35:38.135Z,48.83
2019-01-22T18:38:05.837Z,63.17
2019-01-22T18:40:34.966Z,51.18
2019-01-22T18:43:04.069Z,53.65
2019-01-22T18:45:33.085Z,53.00
2019-01-22T18:48:02.076Z,58.23
2019-01-22T18:50:30.997Z,60.95
2019-01-22T18:52:59.936Z,58.63
2019-01-22T18:55:28.844Z,55.70
2019-01-22T18:57:57.757Z,58.35
2019-01-22T19:00:26.738Z,58.70
2019-01-22T19:02:55.664Z,54.60
2019-01-22T19:05:24.640Z,52.08
2019-01-22T19:07:53.490Z,57.05
2019-01-22T19:10:24.429Z,56.45
2019-01-22T19:12:53.421Z,56.60
2019-01-22T19:15:23.019Z,53.35
2019-01-22T19:17:52.037Z,57.10
2019-01-22T19:20:21.025Z,58.92
2019-01-22T19:22:49.932Z,58.90
2019-01-22T19:25:41.133Z,56.33
2019-01-22T19:28:09.985Z,59.00
2019-01-22T19:30:38.824Z,52.10
2019-01-22T19:33:07.725Z,53.52
2019-01-22T19:35:36.754Z,63.78
2019-01-22T19:38:05.745Z,60.95
2019-01-22T19:40:34.622Z,64.50
2019-01-22T19:43:03.617Z,58.05
2019-01-22T19:45:34.871Z,63.30
2019-01-22T19:48:03.779Z,62.05
2019-01-22T19:50:32.719Z,56.40
2019-01-22T19:53:01.676Z,62.93
2019-01-22T19:55:30.602Z,62.35
2019-01-22T19:57:59.469Z,62.17
2019-01-22T20:00:33.922Z,59.48
2019-01-22T20:03:03.234Z,59.13
2019-01-22T20:05:32.310Z,61.55
2019-01-22T20:08:01.308Z,63.92
2019-01-22T20:10:30.234Z,62.08
2019-01-22T20:12:59.264Z,65.50
2019-01-22T20:15:28.134Z,73.67
2019-01-22T20:17:57.148Z,58.92
2019-01-22T20:20:26.071Z,61.98
2019-01-22T20:22:55.029Z,62.53
2019-01-22T20:25:23.967Z,64.92
2019-01-22T20:27:52.921Z,63.52
2019-01-22T20:30:40.604Z,61.63
2019-01-22T20:33:09.609Z,64.92
2019-01-22T20:35:38.620Z,57.25
2019-01-22T20:38:08.137Z,60.00
2019-01-22T20:40:36.978Z,65.90
2019-01-22T20:43:06.021Z,64.45
2019-01-22T20:45:35.022Z,60.30
2019-01-22T20:48:04.086Z,64.22
2019-01-22T20:50:32.925Z,62.62
2019-01-22T20:53:01.852Z,58.50
2019-01-22T20:55:30.855Z,61.35
2019-01-22T20:57:59.764Z,58.25
2019-01-22T21:00:28.767Z,65.47
2019-01-22T21:02:57.810Z,62.45
2019-01-22T21:05:28.636Z,68.75
2019-01-22T21:07:57.666Z,59.63
2019-01-22T21:10:28.686Z,70.05
2019-01-22T21:12:57.781Z,65.75
2019-01-22T21:15:26.805Z,57.05
2019-01-22T21:17:55.668Z,67.27
2019-01-22T21:20:24.673Z,67.67
2019-01-22T21:22:53.632Z,66.65
2019-01-22T21:25:22.732Z,66.17
2019-01-22T21:27:51.690Z,67.10
2019-01-22T21:30:26.381Z,68.57
2019-01-22T21:32:55.305Z,65.60
2019-01-22T21:35:24.217Z,69.30
2019-01-22T21:37:53.193Z,77.22
2019-01-22T21:40:22.029Z,68.25
2019-01-22T21:42:51.104Z,67.87
2019-01-22T21:45:20.325Z,77.35
2019-01-22T21:47:49.237Z,71.97
2019-01-22T21:50:18.251Z,66.62
2019-01-22T21:52:47.243Z,65.10
2019-01-22T21:55:18.302Z,67.80
2019-01-22T21:57:47.134Z,71.97
2019-01-22T22:00:21.165Z,67.20
2019-01-22T22:02:50.168Z,71.67
2019-01-22T22:05:21.104Z,69.95
2019-01-22T22:07:50.204Z,61.85
2019-01-22T22:10:20.376Z,65.03
2019-01-22T22:12:49.390Z,66.77
2019-01-22T22:15:20.455Z,71.70
2019-01-22T22:17:49.453Z,66.10
2019-01-22T22:20:18.468Z,66.28
2019-01-22T22:22:47.393Z,67.47
2019-01-22T22:25:17.994Z,67.65
2019-01-22T22:27:46.950Z,70.25
2019-01-22T22:30:27.545Z,75.83
2019-01-22T22:32:56.558Z,86.05
2019-01-22T22:35:25.495Z,76.28
2019-01-22T22:37:54.772Z,70.83
2019-01-22T22:40:23.813Z,63.78
2019-01-22T22:42:52.809Z,77.37
2019-01-22T22:45:22.295Z,68.02
2019-01-22T22:47:51.284Z,65.30
2019-01-22T22:50:25.410Z,66.28
2019-01-22T22:52:54.408Z,62.08
2019-01-22T22:55:23.421Z,62.45
2019-01-22T22:57:52.344Z,70.90
2019-01-22T23:00:58.552Z,68.15
2019-01-22T23:03:27.664Z,70.72
2019-01-22T23:05:56.590Z,68.65
2019-01-22T23:08:25.571Z,69.92
2019-01-22T23:10:54.573Z,71.35
2019-01-22T23:13:23.404Z,65.72
2019-01-22T23:15:52.312Z,68.60
2019-01-22T23:18:21.322Z,72.12
2019-01-22T23:20:50.176Z,67.92
2019-01-22T23:23:19.110Z,70.17
2019-01-22T23:25:47.956Z,68.30
2019-01-22T23:28:16.859Z,63.80
2019-01-22T23:30:45.808Z,60.63
2019-01-22T23:33:14.729Z,63.78
2019-01-22T23:35:43.712Z,68.22
2019-01-22T23:38:12.565Z,65.40
2019-01-22T23:40:41.409Z,68.70
2019-01-22T23:43:10.391Z,67.65
2019-01-22T23:45:39.340Z,68.20
2019-01-22T23:48:08.260Z,72.40
2019-01-22T23:50:37.117Z,76.10
2019-01-22T23:53:06.038Z,68.45
2019-01-22T23:55:34.871Z,72.10
2019-01-22T23:58:03.792Z,60.95
